sensor_id;sensor_type;location;lat;lon;timestamp;P1;durP1;ratioP1;P2;durP2;ratioP2
78885;SDS011;68269;52.514;5.722;2023-05-23T00:00:22;13.27;;;3.08;;
78885;SDS011;68269;52.514;5.722;2023-05-23T00:02:52;11.15;;;3.85;;
78885;SDS011;68269;52.514;5.722;2023-05-23T00:05:21;11.80;;;3.38;;
78885;SDS011;68269;52.514;5.722;2023-05-23T00:07:51;13.90;;;3.40;;
78885;SDS011;68269;52.514;5.722;2023-05-23T00:10:20;10.45;;;3.17;;
78885;SDS011;68269;52.514;5.722;2023-05-23T00:12:52;10.60;;;3.00;;
78885;SDS011;68269;52.514;5.722;2023-05-23T00:15:22;11.35;;;3.10;;
78885;SDS011;68269;52.514;5.722;2023-05-23T00:17:52;13.55;;;2.80;;
78885;SDS011;68269;52.514;5.722;2023-05-23T00:20:21;8.10;;;2.65;;
78885;SDS011;68269;52.514;5.722;2023-05-23T00:22:50;9.77;;;2.85;;
78885;SDS011;68269;52.514;5.722;2023-05-23T00:25:23;10.25;;;3.42;;
78885;SDS011;68269;52.514;5.722;2023-05-23T00:28:01;10.95;;;3.70;;
78885;SDS011;68269;52.514;5.722;2023-05-23T00:33:01;14.88;;;3.05;;
78885;SDS011;68269;52.514;5.722;2023-05-23T00:35:31;18.63;;;3.67;;
78885;SDS011;68269;52.514;5.722;2023-05-23T00:38:00;13.02;;;3.58;;
78885;SDS011;68269;52.514;5.722;2023-05-23T00:40:32;12.82;;;3.22;;
78885;SDS011;68269;52.514;5.722;2023-05-23T00:43:04;12.68;;;3.58;;
78885;SDS011;68269;52.514;5.722;2023-05-23T00:45:33;12.82;;;3.83;;
78885;SDS011;68269;52.514;5.722;2023-05-23T00:48:03;14.25;;;3.22;;
78885;SDS011;68269;52.514;5.722;2023-05-23T00:50:34;17.70;;;4.78;;
78885;SDS011;68269;52.514;5.722;2023-05-23T00:53:03;11.55;;;3.22;;
78885;SDS011;68269;52.514;5.722;2023-05-23T00:55:33;12.70;;;3.05;;
78885;SDS011;68269;52.514;5.722;2023-05-23T00:58:06;10.52;;;2.95;;
78885;SDS011;68269;52.514;5.722;2023-05-23T01:00:36;12.20;;;3.20;;
78885;SDS011;68269;52.514;5.722;2023-05-23T01:03:06;13.50;;;3.72;;
78885;SDS011;68269;52.514;5.722;2023-05-23T01:05:43;8.55;;;2.63;;
78885;SDS011;68269;52.514;5.722;2023-05-23T01:08:12;10.20;;;2.58;;
78885;SDS011;68269;52.514;5.722;2023-05-23T01:10:41;10.05;;;2.83;;
78885;SDS011;68269;52.514;5.722;2023-05-23T01:13:16;9.48;;;2.67;;
78885;SDS011;68269;52.514;5.722;2023-05-23T01:15:53;11.30;;;2.92;;
78885;SDS011;68269;52.514;5.722;2023-05-23T01:18:27;11.90;;;3.10;;
78885;SDS011;68269;52.514;5.722;2023-05-23T01:21:01;10.50;;;3.00;;
78885;SDS011;68269;52.514;5.722;2023-05-23T01:26:46;10.60;;;2.85;;
78885;SDS011;68269;52.514;5.722;2023-05-23T01:29:31;11.07;;;2.80;;
78885;SDS011;68269;52.514;5.722;2023-05-23T01:32:03;11.77;;;2.95;;
78885;SDS011;68269;52.514;5.722;2023-05-23T01:34:37;10.88;;;2.47;;
78885;SDS011;68269;52.514;5.722;2023-05-23T01:37:09;8.82;;;2.55;;
78885;SDS011;68269;52.514;5.722;2023-05-23T01:39:39;9.65;;;2.97;;
78885;SDS011;68269;52.514;5.722;2023-05-23T01:42:09;11.75;;;2.75;;
78885;SDS011;68269;52.514;5.722;2023-05-23T01:44:44;10.05;;;2.78;;
78885;SDS011;68269;52.514;5.722;2023-05-23T01:47:13;10.48;;;2.83;;
78885;SDS011;68269;52.514;5.722;2023-05-23T01:49:44;15.48;;;3.17;;
78885;SDS011;68269;52.514;5.722;2023-05-23T01:52:15;13.45;;;2.88;;
78885;SDS011;68269;52.514;5.722;2023-05-23T01:54:44;12.95;;;3.13;;
78885;SDS011;68269;52.514;5.722;2023-05-23T01:57:14;9.73;;;2.65;;
78885;SDS011;68269;52.514;5.722;2023-05-23T01:59:47;9.23;;;2.50;;
78885;SDS011;68269;52.514;5.722;2023-05-23T02:02:16;12.27;;;3.03;;
78885;SDS011;68269;52.514;5.722;2023-05-23T02:04:45;10.05;;;2.85;;
78885;SDS011;68269;52.514;5.722;2023-05-23T02:07:18;10.18;;;2.95;;
78885;SDS011;68269;52.514;5.722;2023-05-23T02:09:48;10.70;;;3.30;;
78885;SDS011;68269;52.514;5.722;2023-05-23T02:12:17;10.63;;;2.67;;
78885;SDS011;68269;52.514;5.722;2023-05-23T02:14:49;13.95;;;3.28;;
78885;SDS011;68269;52.514;5.722;2023-05-23T02:17:19;9.98;;;2.80;;
78885;SDS011;68269;52.514;5.722;2023-05-23T02:19:49;8.88;;;2.80;;
78885;SDS011;68269;52.514;5.722;2023-05-23T02:22:21;10.18;;;3.13;;
78885;SDS011;68269;52.514;5.722;2023-05-23T02:24:51;14.50;;;3.28;;
78885;SDS011;68269;52.514;5.722;2023-05-23T02:27:20;10.93;;;2.90;;
78885;SDS011;68269;52.514;5.722;2023-05-23T02:29:52;11.55;;;3.05;;
78885;SDS011;68269;52.514;5.722;2023-05-23T02:32:22;13.85;;;2.97;;
78885;SDS011;68269;52.514;5.722;2023-05-23T02:34:51;13.05;;;3.35;;
78885;SDS011;68269;52.514;5.722;2023-05-23T02:37:20;12.68;;;2.95;;
78885;SDS011;68269;52.514;5.722;2023-05-23T02:39:50;11.18;;;3.70;;
78885;SDS011;68269;52.514;5.722;2023-05-23T02:42:20;11.30;;;3.20;;
78885;SDS011;68269;52.514;5.722;2023-05-23T02:44:52;11.18;;;2.97;;
78885;SDS011;68269;52.514;5.722;2023-05-23T02:47:22;13.15;;;3.72;;
78885;SDS011;68269;52.514;5.722;2023-05-23T02:49:51;13.23;;;3.58;;
78885;SDS011;68269;52.514;5.722;2023-05-23T02:52:20;11.38;;;3.10;;
78885;SDS011;68269;52.514;5.722;2023-05-23T02:54:50;13.38;;;3.17;;
78885;SDS011;68269;52.514;5.722;2023-05-23T02:57:19;12.90;;;2.67;;
78885;SDS011;68269;52.514;5.722;2023-05-23T02:59:48;11.32;;;3.17;;
78885;SDS011;68269;52.514;5.722;2023-05-23T03:02:20;11.57;;;2.88;;
78885;SDS011;68269;52.514;5.722;2023-05-23T03:04:49;14.60;;;3.38;;
78885;SDS011;68269;52.514;5.722;2023-05-23T03:07:20;13.93;;;3.92;;
78885;SDS011;68269;52.514;5.722;2023-05-23T03:09:50;14.23;;;3.33;;
78885;SDS011;68269;52.514;5.722;2023-05-23T03:12:20;11.77;;;2.90;;
78885;SDS011;68269;52.514;5.722;2023-05-23T03:14:49;12.63;;;3.13;;
78885;SDS011;68269;52.514;5.722;2023-05-23T03:17:21;11.88;;;2.90;;
78885;SDS011;68269;52.514;5.722;2023-05-23T03:19:52;9.88;;;2.65;;
78885;SDS011;68269;52.514;5.722;2023-05-23T03:22:21;10.07;;;2.58;;
78885;SDS011;68269;52.514;5.722;2023-05-23T03:24:50;11.38;;;3.03;;
78885;SDS011;68269;52.514;5.722;2023-05-23T03:27:20;13.55;;;3.70;;
78885;SDS011;68269;52.514;5.722;2023-05-23T03:29:49;12.63;;;3.40;;
78885;SDS011;68269;52.514;5.722;2023-05-23T03:32:22;14.20;;;3.05;;
78885;SDS011;68269;52.514;5.722;2023-05-23T03:34:51;17.30;;;3.45;;
78885;SDS011;68269;52.514;5.722;2023-05-23T03:37:21;13.98;;;3.33;;
78885;SDS011;68269;52.514;5.722;2023-05-23T03:39:50;15.00;;;3.45;;
78885;SDS011;68269;52.514;5.722;2023-05-23T03:42:19;15.70;;;3.38;;
78885;SDS011;68269;52.514;5.722;2023-05-23T03:44:49;14.70;;;3.53;;
78885;SDS011;68269;52.514;5.722;2023-05-23T03:47:18;13.30;;;2.60;;
78885;SDS011;68269;52.514;5.722;2023-05-23T03:49:51;16.55;;;3.38;;
78885;SDS011;68269;52.514;5.722;2023-05-23T03:52:21;14.07;;;2.33;;
78885;SDS011;68269;52.514;5.722;2023-05-23T03:54:50;15.40;;;3.33;;
78885;SDS011;68269;52.514;5.722;2023-05-23T03:57:20;10.13;;;2.65;;
78885;SDS011;68269;52.514;5.722;2023-05-23T03:59:50;15.07;;;3.47;;
78885;SDS011;68269;52.514;5.722;2023-05-23T04:02:23;11.02;;;3.30;;
78885;SDS011;68269;52.514;5.722;2023-05-23T04:04:52;11.82;;;2.88;;
78885;SDS011;68269;52.514;5.722;2023-05-23T04:07:22;15.30;;;2.92;;
78885;SDS011;68269;52.514;5.722;2023-05-23T04:09:51;12.25;;;2.55;;
78885;SDS011;68269;52.514;5.722;2023-05-23T04:12:21;11.10;;;2.33;;
78885;SDS011;68269;52.514;5.722;2023-05-23T04:14:51;10.52;;;2.97;;
78885;SDS011;68269;52.514;5.722;2023-05-23T04:17:23;10.35;;;2.60;;
78885;SDS011;68269;52.514;5.722;2023-05-23T04:19:55;13.73;;;2.35;;
78885;SDS011;68269;52.514;5.722;2023-05-23T04:22:25;12.48;;;2.67;;
78885;SDS011;68269;52.514;5.722;2023-05-23T04:24:54;14.68;;;2.42;;
78885;SDS011;68269;52.514;5.722;2023-05-23T04:27:25;10.43;;;2.50;;
78885;SDS011;68269;52.514;5.722;2023-05-23T04:29:55;14.85;;;2.35;;
78885;SDS011;68269;52.514;5.722;2023-05-23T04:32:28;9.50;;;2.55;;
78885;SDS011;68269;52.514;5.722;2023-05-23T04:34:57;10.40;;;1.95;;
78885;SDS011;68269;52.514;5.722;2023-05-23T04:37:27;9.45;;;2.47;;
78885;SDS011;68269;52.514;5.722;2023-05-23T04:39:58;8.02;;;2.00;;
78885;SDS011;68269;52.514;5.722;2023-05-23T04:42:40;10.20;;;2.15;;
78885;SDS011;68269;52.514;5.722;2023-05-23T04:45:28;16.52;;;3.10;;
78885;SDS011;68269;52.514;5.722;2023-05-23T04:48:03;8.70;;;2.05;;
78885;SDS011;68269;52.514;5.722;2023-05-23T04:50:40;8.60;;;2.03;;
78885;SDS011;68269;52.514;5.722;2023-05-23T04:53:12;10.20;;;2.28;;
78885;SDS011;68269;52.514;5.722;2023-05-23T04:55:41;10.50;;;2.30;;
78885;SDS011;68269;52.514;5.722;2023-05-23T05:00:44;7.50;;;1.95;;
78885;SDS011;68269;52.514;5.722;2023-05-23T05:03:17;9.05;;;2.03;;
78885;SDS011;68269;52.514;5.722;2023-05-23T05:05:49;8.70;;;1.73;;
78885;SDS011;68269;52.514;5.722;2023-05-23T05:08:19;11.85;;;2.10;;
78885;SDS011;68269;52.514;5.722;2023-05-23T05:10:49;8.88;;;1.73;;
78885;SDS011;68269;52.514;5.722;2023-05-23T05:13:19;10.23;;;1.98;;
78885;SDS011;68269;52.514;5.722;2023-05-23T05:15:50;10.95;;;2.33;;
78885;SDS011;68269;52.514;5.722;2023-05-23T05:18:23;9.10;;;1.88;;
78885;SDS011;68269;52.514;5.722;2023-05-23T05:20:55;10.05;;;2.15;;
78885;SDS011;68269;52.514;5.722;2023-05-23T05:23:25;7.15;;;1.67;;
78885;SDS011;68269;52.514;5.722;2023-05-23T05:25:57;8.45;;;2.17;;
78885;SDS011;68269;52.514;5.722;2023-05-23T05:28:28;11.88;;;2.00;;
78885;SDS011;68269;52.514;5.722;2023-05-23T05:30:58;11.32;;;2.38;;
78885;SDS011;68269;52.514;5.722;2023-05-23T05:33:35;8.48;;;1.45;;
78885;SDS011;68269;52.514;5.722;2023-05-23T05:36:10;9.13;;;2.00;;
78885;SDS011;68269;52.514;5.722;2023-05-23T05:38:40;8.90;;;2.00;;
78885;SDS011;68269;52.514;5.722;2023-05-23T05:41:09;6.88;;;2.03;;
78885;SDS011;68269;52.514;5.722;2023-05-23T05:43:44;10.40;;;1.83;;
78885;SDS011;68269;52.514;5.722;2023-05-23T05:46:13;9.48;;;1.92;;
78885;SDS011;68269;52.514;5.722;2023-05-23T05:48:46;10.25;;;2.25;;
78885;SDS011;68269;52.514;5.722;2023-05-23T05:51:16;9.65;;;1.88;;
78885;SDS011;68269;52.514;5.722;2023-05-23T05:53:46;8.30;;;1.83;;
78885;SDS011;68269;52.514;5.722;2023-05-23T05:56:16;9.73;;;2.00;;
78885;SDS011;68269;52.514;5.722;2023-05-23T05:58:47;9.20;;;2.03;;
78885;SDS011;68269;52.514;5.722;2023-05-23T06:01:16;7.63;;;1.63;;
78885;SDS011;68269;52.514;5.722;2023-05-23T06:03:48;11.05;;;2.42;;
78885;SDS011;68269;52.514;5.722;2023-05-23T06:06:18;9.40;;;2.33;;
78885;SDS011;68269;52.514;5.722;2023-05-23T06:08:47;10.20;;;1.90;;
78885;SDS011;68269;52.514;5.722;2023-05-23T06:11:16;14.30;;;3.20;;
78885;SDS011;68269;52.514;5.722;2023-05-23T06:13:46;9.15;;;1.67;;
78885;SDS011;68269;52.514;5.722;2023-05-23T06:16:15;9.88;;;1.80;;
78885;SDS011;68269;52.514;5.722;2023-05-23T06:18:45;8.30;;;1.83;;
78885;SDS011;68269;52.514;5.722;2023-05-23T06:21:17;8.60;;;1.95;;
78885;SDS011;68269;52.514;5.722;2023-05-23T06:23:48;11.73;;;1.73;;
78885;SDS011;68269;52.514;5.722;2023-05-23T06:26:18;8.55;;;1.45;;
78885;SDS011;68269;52.514;5.722;2023-05-23T06:28:47;11.10;;;2.10;;
78885;SDS011;68269;52.514;5.722;2023-05-23T06:31:16;8.88;;;1.83;;
78885;SDS011;68269;52.514;5.722;2023-05-23T06:33:46;9.40;;;1.67;;
78885;SDS011;68269;52.514;5.722;2023-05-23T06:36:19;8.30;;;1.25;;
78885;SDS011;68269;52.514;5.722;2023-05-23T06:38:48;8.30;;;1.30;;
78885;SDS011;68269;52.514;5.722;2023-05-23T06:41:17;5.18;;;1.42;;
78885;SDS011;68269;52.514;5.722;2023-05-23T06:43:47;8.68;;;1.23;;
78885;SDS011;68269;52.514;5.722;2023-05-23T06:46:24;7.63;;;1.20;;
78885;SDS011;68269;52.514;5.722;2023-05-23T06:48:53;9.60;;;1.40;;
78885;SDS011;68269;52.514;5.722;2023-05-23T06:51:25;10.63;;;1.40;;
78885;SDS011;68269;52.514;5.722;2023-05-23T06:53:54;10.32;;;1.38;;
78885;SDS011;68269;52.514;5.722;2023-05-23T06:56:24;11.63;;;1.17;;
78885;SDS011;68269;52.514;5.722;2023-05-23T06:58:57;8.85;;;1.63;;
78885;SDS011;68269;52.514;5.722;2023-05-23T07:01:26;6.72;;;1.25;;
78885;SDS011;68269;52.514;5.722;2023-05-23T07:03:55;9.25;;;1.60;;
78885;SDS011;68269;52.514;5.722;2023-05-23T07:06:27;7.40;;;1.00;;
78885;SDS011;68269;52.514;5.722;2023-05-23T07:08:57;12.52;;;1.60;;
78885;SDS011;68269;52.514;5.722;2023-05-23T07:11:26;6.70;;;1.50;;
78885;SDS011;68269;52.514;5.722;2023-05-23T07:13:58;16.15;;;1.77;;
78885;SDS011;68269;52.514;5.722;2023-05-23T07:16:35;9.25;;;1.27;;
78885;SDS011;68269;52.514;5.722;2023-05-23T07:19:06;9.93;;;1.67;;
78885;SDS011;68269;52.514;5.722;2023-05-23T07:21:48;10.95;;;1.38;;
78885;SDS011;68269;52.514;5.722;2023-05-23T07:24:18;9.48;;;1.42;;
78885;SDS011;68269;52.514;5.722;2023-05-23T07:26:47;7.13;;;1.15;;
78885;SDS011;68269;52.514;5.722;2023-05-23T07:29:16;8.18;;;1.25;;
78885;SDS011;68269;52.514;5.722;2023-05-23T07:31:48;11.13;;;1.48;;
78885;SDS011;68269;52.514;5.722;2023-05-23T07:34:19;8.43;;;1.20;;
78885;SDS011;68269;52.514;5.722;2023-05-23T07:36:55;7.38;;;1.00;;
78885;SDS011;68269;52.514;5.722;2023-05-23T07:39:27;7.30;;;0.95;;
78885;SDS011;68269;52.514;5.722;2023-05-23T07:41:58;10.80;;;1.33;;
78885;SDS011;68269;52.514;5.722;2023-05-23T07:44:27;9.32;;;1.10;;
78885;SDS011;68269;52.514;5.722;2023-05-23T07:46:56;6.68;;;0.90;;
78885;SDS011;68269;52.514;5.722;2023-05-23T07:49:26;6.97;;;1.20;;
78885;SDS011;68269;52.514;5.722;2023-05-23T07:51:58;8.90;;;1.88;;
78885;SDS011;68269;52.514;5.722;2023-05-23T07:54:27;7.60;;;1.58;;
78885;SDS011;68269;52.514;5.722;2023-05-23T07:56:58;9.63;;;0.98;;
78885;SDS011;68269;52.514;5.722;2023-05-23T07:59:28;10.95;;;1.40;;
78885;SDS011;68269;52.514;5.722;2023-05-23T08:01:58;12.57;;;1.40;;
78885;SDS011;68269;52.514;5.722;2023-05-23T08:04:27;12.20;;;1.33;;
78885;SDS011;68269;52.514;5.722;2023-05-23T08:07:00;13.38;;;1.35;;
78885;SDS011;68269;52.514;5.722;2023-05-23T08:09:37;6.43;;;1.00;;
78885;SDS011;68269;52.514;5.722;2023-05-23T08:12:07;10.13;;;1.60;;
78885;SDS011;68269;52.514;5.722;2023-05-23T08:14:38;10.48;;;1.40;;
78885;SDS011;68269;52.514;5.722;2023-05-23T08:17:19;12.18;;;1.38;;
78885;SDS011;68269;52.514;5.722;2023-05-23T08:19:48;9.48;;;1.23;;
78885;SDS011;68269;52.514;5.722;2023-05-23T08:22:20;7.63;;;1.40;;
78885;SDS011;68269;52.514;5.722;2023-05-23T08:24:50;8.43;;;1.30;;
78885;SDS011;68269;52.514;5.722;2023-05-23T08:27:20;12.70;;;1.42;;
78885;SDS011;68269;52.514;5.722;2023-05-23T08:29:54;8.10;;;1.42;;
78885;SDS011;68269;52.514;5.722;2023-05-23T08:32:24;6.60;;;1.38;;
78885;SDS011;68269;52.514;5.722;2023-05-23T08:34:53;11.48;;;1.25;;
78885;SDS011;68269;52.514;5.722;2023-05-23T08:37:26;7.93;;;1.45;;
78885;SDS011;68269;52.514;5.722;2023-05-23T08:39:55;7.47;;;1.40;;
78885;SDS011;68269;52.514;5.722;2023-05-23T08:42:46;8.48;;;1.27;;
78885;SDS011;68269;52.514;5.722;2023-05-23T08:45:16;8.38;;;1.20;;
78885;SDS011;68269;52.514;5.722;2023-05-23T08:47:46;5.97;;;1.05;;
78885;SDS011;68269;52.514;5.722;2023-05-23T08:50:20;9.45;;;1.20;;
78885;SDS011;68269;52.514;5.722;2023-05-23T08:52:54;17.23;;;1.60;;
78885;SDS011;68269;52.514;5.722;2023-05-23T08:55:27;10.00;;;1.50;;
78885;SDS011;68269;52.514;5.722;2023-05-23T08:58:00;6.80;;;1.38;;
78885;SDS011;68269;52.514;5.722;2023-05-23T09:00:44;9.60;;;1.42;;
78885;SDS011;68269;52.514;5.722;2023-05-23T09:03:15;6.15;;;1.17;;
78885;SDS011;68269;52.514;5.722;2023-05-23T09:06:07;9.60;;;1.10;;
78885;SDS011;68269;52.514;5.722;2023-05-23T09:08:41;10.90;;;1.17;;
78885;SDS011;68269;52.514;5.722;2023-05-23T09:11:11;12.52;;;1.60;;
78885;SDS011;68269;52.514;5.722;2023-05-23T09:13:43;11.05;;;1.77;;
78885;SDS011;68269;52.514;5.722;2023-05-23T09:16:16;7.10;;;1.48;;
78885;SDS011;68269;52.514;5.722;2023-05-23T09:18:53;9.82;;;1.42;;
78885;SDS011;68269;52.514;5.722;2023-05-23T09:21:23;10.88;;;1.40;;
78885;SDS011;68269;52.514;5.722;2023-05-23T09:24:02;9.35;;;1.35;;
78885;SDS011;68269;52.514;5.722;2023-05-23T09:26:32;12.60;;;1.40;;
78885;SDS011;68269;52.514;5.722;2023-05-23T09:29:03;6.40;;;1.00;;
78885;SDS011;68269;52.514;5.722;2023-05-23T09:31:34;5.40;;;1.27;;
78885;SDS011;68269;52.514;5.722;2023-05-23T09:34:03;11.02;;;1.42;;
78885;SDS011;68269;52.514;5.722;2023-05-23T09:36:35;7.70;;;1.08;;
78885;SDS011;68269;52.514;5.722;2023-05-23T09:39:11;8.02;;;1.20;;
78885;SDS011;68269;52.514;5.722;2023-05-23T09:41:41;9.40;;;1.27;;
78885;SDS011;68269;52.514;5.722;2023-05-23T09:44:12;13.00;;;1.25;;
78885;SDS011;68269;52.514;5.722;2023-05-23T09:46:41;8.65;;;1.65;;
78885;SDS011;68269;52.514;5.722;2023-05-23T09:49:14;9.55;;;1.45;;
78885;SDS011;68269;52.514;5.722;2023-05-23T09:51:55;10.68;;;1.15;;
78885;SDS011;68269;52.514;5.722;2023-05-23T09:54:28;10.65;;;1.70;;
78885;SDS011;68269;52.514;5.722;2023-05-23T09:56:57;8.57;;;1.45;;
78885;SDS011;68269;52.514;5.722;2023-05-23T09:59:30;10.68;;;1.30;;
78885;SDS011;68269;52.514;5.722;2023-05-23T10:02:02;8.90;;;1.50;;
78885;SDS011;68269;52.514;5.722;2023-05-23T10:07:06;4.68;;;0.95;;
78885;SDS011;68269;52.514;5.722;2023-05-23T10:09:46;10.55;;;1.50;;
78885;SDS011;68269;52.514;5.722;2023-05-23T10:12:31;8.65;;;1.42;;
78885;SDS011;68269;52.514;5.722;2023-05-23T10:15:08;9.00;;;1.17;;
78885;SDS011;68269;52.514;5.722;2023-05-23T10:17:44;7.50;;;1.13;;
78885;SDS011;68269;52.514;5.722;2023-05-23T10:20:30;12.43;;;1.40;;
78885;SDS011;68269;52.514;5.722;2023-05-23T10:23:02;7.72;;;1.38;;
78885;SDS011;68269;52.514;5.722;2023-05-23T10:25:35;12.35;;;1.60;;
78885;SDS011;68269;52.514;5.722;2023-05-23T10:28:06;8.95;;;1.20;;
78885;SDS011;68269;52.514;5.722;2023-05-23T10:30:36;10.80;;;1.30;;
78885;SDS011;68269;52.514;5.722;2023-05-23T10:33:06;9.77;;;1.20;;
78885;SDS011;68269;52.514;5.722;2023-05-23T10:35:41;12.07;;;1.52;;
78885;SDS011;68269;52.514;5.722;2023-05-23T10:38:22;9.00;;;1.38;;
78885;SDS011;68269;52.514;5.722;2023-05-23T10:41:03;8.65;;;1.08;;
78885;SDS011;68269;52.514;5.722;2023-05-23T10:43:39;5.05;;;0.98;;
78885;SDS011;68269;52.514;5.722;2023-05-23T10:46:14;7.28;;;1.20;;
78885;SDS011;68269;52.514;5.722;2023-05-23T10:48:43;7.95;;;1.27;;
78885;SDS011;68269;52.514;5.722;2023-05-23T10:51:13;10.02;;;1.10;;
78885;SDS011;68269;52.514;5.722;2023-05-23T10:53:44;9.65;;;0.93;;
78885;SDS011;68269;52.514;5.722;2023-05-23T10:56:20;7.70;;;0.90;;
78885;SDS011;68269;52.514;5.722;2023-05-23T10:58:51;9.20;;;1.10;;
78885;SDS011;68269;52.514;5.722;2023-05-23T11:01:21;10.43;;;1.00;;
78885;SDS011;68269;52.514;5.722;2023-05-23T11:03:52;7.32;;;1.40;;
78885;SDS011;68269;52.514;5.722;2023-05-23T11:06:28;9.50;;;1.20;;
78885;SDS011;68269;52.514;5.722;2023-05-23T11:09:00;7.68;;;0.95;;
78885;SDS011;68269;52.514;5.722;2023-05-23T11:14:31;12.15;;;1.40;;
78885;SDS011;68269;52.514;5.722;2023-05-23T11:17:17;7.32;;;0.98;;
78885;SDS011;68269;52.514;5.722;2023-05-23T11:19:58;5.97;;;0.82;;
78885;SDS011;68269;52.514;5.722;2023-05-23T11:22:30;6.38;;;1.00;;
78885;SDS011;68269;52.514;5.722;2023-05-23T11:25:01;7.43;;;0.90;;
78885;SDS011;68269;52.514;5.722;2023-05-23T11:27:38;9.18;;;0.88;;
78885;SDS011;68269;52.514;5.722;2023-05-23T11:30:09;8.27;;;0.90;;
78885;SDS011;68269;52.514;5.722;2023-05-23T11:32:41;6.30;;;1.05;;
78885;SDS011;68269;52.514;5.722;2023-05-23T11:35:17;9.45;;;0.98;;
78885;SDS011;68269;52.514;5.722;2023-05-23T11:37:47;10.07;;;1.00;;
78885;SDS011;68269;52.514;5.722;2023-05-23T11:40:29;6.55;;;1.00;;
78885;SDS011;68269;52.514;5.722;2023-05-23T11:43:02;8.85;;;1.33;;
78885;SDS011;68269;52.514;5.722;2023-05-23T11:45:33;7.63;;;1.23;;
78885;SDS011;68269;52.514;5.722;2023-05-23T11:48:04;5.45;;;1.02;;
78885;SDS011;68269;52.514;5.722;2023-05-23T11:50:34;5.25;;;0.98;;
78885;SDS011;68269;52.514;5.722;2023-05-23T11:53:12;9.63;;;1.33;;
78885;SDS011;68269;52.514;5.722;2023-05-23T11:55:49;10.32;;;1.27;;
78885;SDS011;68269;52.514;5.722;2023-05-23T11:58:24;7.78;;;1.23;;
78885;SDS011;68269;52.514;5.722;2023-05-23T12:00:57;7.35;;;0.90;;
78885;SDS011;68269;52.514;5.722;2023-05-23T12:03:27;5.07;;;0.90;;
78885;SDS011;68269;52.514;5.722;2023-05-23T12:05:57;5.40;;;0.82;;
78885;SDS011;68269;52.514;5.722;2023-05-23T12:08:27;7.38;;;1.27;;
78885;SDS011;68269;52.514;5.722;2023-05-23T12:10:57;7.05;;;1.30;;
78885;SDS011;68269;52.514;5.722;2023-05-23T12:13:30;6.85;;;1.27;;
78885;SDS011;68269;52.514;5.722;2023-05-23T12:16:00;8.13;;;1.02;;
78885;SDS011;68269;52.514;5.722;2023-05-23T12:18:30;8.07;;;1.35;;
78885;SDS011;68269;52.514;5.722;2023-05-23T12:21:00;6.90;;;1.27;;
78885;SDS011;68269;52.514;5.722;2023-05-23T12:23:33;10.63;;;1.10;;
78885;SDS011;68269;52.514;5.722;2023-05-23T12:26:03;8.10;;;1.27;;
78885;SDS011;68269;52.514;5.722;2023-05-23T12:28:37;10.00;;;1.48;;
78885;SDS011;68269;52.514;5.722;2023-05-23T12:31:08;8.48;;;1.33;;
78885;SDS011;68269;52.514;5.722;2023-05-23T12:33:39;8.98;;;1.30;;
78885;SDS011;68269;52.514;5.722;2023-05-23T12:36:09;10.55;;;1.30;;
78885;SDS011;68269;52.514;5.722;2023-05-23T12:38:39;10.32;;;1.73;;
78885;SDS011;68269;52.514;5.722;2023-05-23T12:41:11;8.30;;;1.60;;
78885;SDS011;68269;52.514;5.722;2023-05-23T12:43:50;11.38;;;1.85;;
78885;SDS011;68269;52.514;5.722;2023-05-23T12:46:21;7.35;;;1.00;;
78885;SDS011;68269;52.514;5.722;2023-05-23T12:48:52;6.80;;;1.05;;
78885;SDS011;68269;52.514;5.722;2023-05-23T12:51:22;10.07;;;1.60;;
78885;SDS011;68269;52.514;5.722;2023-05-23T12:53:52;9.57;;;1.40;;
78885;SDS011;68269;52.514;5.722;2023-05-23T12:56:22;6.40;;;1.13;;
78885;SDS011;68269;52.514;5.722;2023-05-23T12:58:54;6.47;;;1.17;;
78885;SDS011;68269;52.514;5.722;2023-05-23T13:01:24;9.52;;;1.00;;
78885;SDS011;68269;52.514;5.722;2023-05-23T13:03:53;4.57;;;1.00;;
78885;SDS011;68269;52.514;5.722;2023-05-23T13:06:23;6.07;;;0.90;;
78885;SDS011;68269;52.514;5.722;2023-05-23T13:08:52;7.10;;;0.93;;
78885;SDS011;68269;52.514;5.722;2023-05-23T13:11:22;8.18;;;1.13;;
78885;SDS011;68269;52.514;5.722;2023-05-23T13:13:54;7.32;;;0.93;;
78885;SDS011;68269;52.514;5.722;2023-05-23T13:16:24;5.85;;;0.93;;
78885;SDS011;68269;52.514;5.722;2023-05-23T13:18:54;9.77;;;1.13;;
78885;SDS011;68269;52.514;5.722;2023-05-23T13:21:23;6.97;;;1.02;;
78885;SDS011;68269;52.514;5.722;2023-05-23T13:23:53;8.32;;;1.33;;
78885;SDS011;68269;52.514;5.722;2023-05-23T13:26:22;6.25;;;0.90;;
78885;SDS011;68269;52.514;5.722;2023-05-23T13:28:52;7.03;;;1.67;;
78885;SDS011;68269;52.514;5.722;2023-05-23T13:31:24;6.63;;;1.15;;
78885;SDS011;68269;52.514;5.722;2023-05-23T13:33:53;9.07;;;1.20;;
78885;SDS011;68269;52.514;5.722;2023-05-23T13:36:23;8.60;;;1.10;;
78885;SDS011;68269;52.514;5.722;2023-05-23T13:38:53;6.20;;;0.93;;
78885;SDS011;68269;52.514;5.722;2023-05-23T13:41:23;6.22;;;0.88;;
78885;SDS011;68269;52.514;5.722;2023-05-23T13:43:55;7.30;;;1.10;;
78885;SDS011;68269;52.514;5.722;2023-05-23T13:46:24;5.43;;;1.02;;
78885;SDS011;68269;52.514;5.722;2023-05-23T13:48:54;7.22;;;1.25;;
78885;SDS011;68269;52.514;5.722;2023-05-23T13:51:23;3.20;;;0.70;;
78885;SDS011;68269;52.514;5.722;2023-05-23T13:53:53;6.78;;;1.15;;
78885;SDS011;68269;52.514;5.722;2023-05-23T13:56:22;9.05;;;1.30;;
78885;SDS011;68269;52.514;5.722;2023-05-23T13:58:54;8.45;;;1.35;;
78885;SDS011;68269;52.514;5.722;2023-05-23T14:01:24;5.88;;;0.82;;
78885;SDS011;68269;52.514;5.722;2023-05-23T14:03:54;6.75;;;1.05;;
78885;SDS011;68269;52.514;5.722;2023-05-23T14:06:23;6.60;;;1.10;;
78885;SDS011;68269;52.514;5.722;2023-05-23T14:08:53;7.25;;;0.90;;
78885;SDS011;68269;52.514;5.722;2023-05-23T14:11:22;7.13;;;1.30;;
78885;SDS011;68269;52.514;5.722;2023-05-23T14:13:55;6.50;;;1.20;;
78885;SDS011;68269;52.514;5.722;2023-05-23T14:16:25;7.15;;;0.77;;
78885;SDS011;68269;52.514;5.722;2023-05-23T14:18:54;7.13;;;0.82;;
78885;SDS011;68269;52.514;5.722;2023-05-23T14:21:24;8.05;;;1.00;;
78885;SDS011;68269;52.514;5.722;2023-05-23T14:23:54;4.10;;;0.77;;
78885;SDS011;68269;52.514;5.722;2023-05-23T14:26:23;8.85;;;1.08;;
78885;SDS011;68269;52.514;5.722;2023-05-23T14:28:55;6.68;;;0.80;;
78885;SDS011;68269;52.514;5.722;2023-05-23T14:31:25;8.75;;;0.68;;
78885;SDS011;68269;52.514;5.722;2023-05-23T14:33:55;5.88;;;1.00;;
78885;SDS011;68269;52.514;5.722;2023-05-23T14:36:24;6.18;;;0.80;;
78885;SDS011;68269;52.514;5.722;2023-05-23T14:38:56;5.95;;;0.70;;
78885;SDS011;68269;52.514;5.722;2023-05-23T14:41:26;4.97;;;0.70;;
78885;SDS011;68269;52.514;5.722;2023-05-23T14:43:59;7.07;;;0.80;;
78885;SDS011;68269;52.514;5.722;2023-05-23T14:46:30;3.55;;;0.82;;
78885;SDS011;68269;52.514;5.722;2023-05-23T14:49:00;4.93;;;0.82;;
78885;SDS011;68269;52.514;5.722;2023-05-23T14:51:29;6.22;;;0.85;;
78885;SDS011;68269;52.514;5.722;2023-05-23T14:53:59;4.63;;;1.00;;
78885;SDS011;68269;52.514;5.722;2023-05-23T14:56:29;5.85;;;0.90;;
78885;SDS011;68269;52.514;5.722;2023-05-23T14:59:01;7.28;;;1.00;;
78885;SDS011;68269;52.514;5.722;2023-05-23T15:01:30;5.50;;;0.93;;
78885;SDS011;68269;52.514;5.722;2023-05-23T15:04:00;7.40;;;1.17;;
78885;SDS011;68269;52.514;5.722;2023-05-23T15:06:30;5.80;;;0.70;;
78885;SDS011;68269;52.514;5.722;2023-05-23T15:09:00;5.80;;;0.90;;
78885;SDS011;68269;52.514;5.722;2023-05-23T15:11:30;6.10;;;0.93;;
78885;SDS011;68269;52.514;5.722;2023-05-23T15:14:02;6.57;;;0.85;;
78885;SDS011;68269;52.514;5.722;2023-05-23T15:16:31;8.60;;;1.13;;
78885;SDS011;68269;52.514;5.722;2023-05-23T15:19:02;7.20;;;0.95;;